Time;durP1;ratioP1;P1;durP2;ratioP2;P2;SDS_P1;SDS_P2;PMS_P1;PMS_P2;Temp;Humidity;BMP_temperature;BMP_pressure;BME280_temperature;BME280_humidity;BME280_pressure;Samples;Min_cycle;Max_cycle;Signal;HPM_P1;HPM_P2
2023/06/12 04:15:26;;;;;;;6.70;4.70;;;;;;;14.02;100.00;100184.88;5557961;32;184480;-86
2023/06/12 04:18:30;;;;;;;6.43;4.53;;;;;;;14.05;100.00;100183.81;5543834;32;34179;-86
2023/06/12 04:21:33;;;;;;;6.07;4.47;;;;;;;14.16;100.00;100178.63;5543875;32;33733;-86
2023/06/12 04:24:36;;;;;;;5.68;4.25;;;;;;;14.21;99.23;100183.63;5548356;32;33373;-86
2023/06/12 04:27:40;;;;;;;4.60;4.15;;;;;;;14.27;97.50;100180.53;5563316;32;34593;-86
2023/06/12 04:30:44;;;;;;;6.80;4.15;;;;;;;14.40;95.79;100184.06;5551160;32;33513;-85
2023/06/12 04:33:51;;;;;;;4.68;4.28;;;;;;;14.63;93.30;100184.28;5563244;32;34159;-86
2023/06/12 04:36:54;;;;;;;8.60;4.25;;;;;;;15.07;89.24;100181.28;5560494;32;33302;-85
2023/06/12 04:39:57;;;;;;;5.43;4.20;;;;;;;15.28;87.89;100181.53;5548046;32;33187;-85
2023/06/12 04:43:00;;;;;;;4.75;3.97;;;;;;;15.35;88.70;100179.28;5544102;32;33612;-85
2023/06/12 04:46:03;;;;;;;6.22;4.00;;;;;;;15.47;86.48;100186.41;5546287;32;33628;-85
2023/06/12 04:49:05;;;;;;;4.30;3.70;;;;;;;15.43;84.75;100187.59;5545285;32;33715;-85
2023/06/12 04:52:09;;;;;;;4.50;4.10;;;;;;;15.53;86.28;100195.78;5558393;32;34017;-86
2023/06/12 04:55:12;;;;;;;4.78;3.62;;;;;;;15.62;86.10;100183.56;5545292;32;33372;-86
2023/06/12 04:58:15;;;;;;;4.43;3.75;;;;;;;15.74;81.09;100195.19;5540981;32;34213;-86
2023/06/12 05:01:21;;;;;;;4.40;4.00;;;;;;;15.76;82.01;100190.56;5534179;32;34568;-89
2023/06/12 05:04:25;;;;;;;4.95;4.00;;;;;;;15.91;83.23;100199.25;5571874;31;34896;-90
2023/06/12 05:11:13;;;;;;;6.70;4.00;;;;;;;16.07;75.53;100200.78;4083978;30;20111;-86
2023/06/12 05:14:17;;;;;;;7.22;3.80;;;;;;;16.19;75.79;100193.66;5557938;32;34205;-85
2023/06/12 05:17:19;;;;;;;6.70;3.70;;;;;;;16.45;75.12;100205.06;5572061;32;34213;-85
2023/06/12 05:20:23;;;;;;;5.93;3.67;;;;;;;17.24;70.10;100198.88;5570050;32;34300;-87
2023/06/12 05:23:25;;;;;;;5.05;3.40;;;;;;;19.33;61.53;100202.87;5583262;31;33554;-86
2023/06/12 05:26:28;;;;;;;3.28;2.97;;;;;;;20.76;54.23;100207.78;5568690;32;34058;-86
2023/06/12 05:29:31;;;;;;;3.70;3.40;;;;;;;22.26;48.82;100207.56;5550038;32;33765;-86
2023/06/12 05:32:35;;;;;;;3.55;3.25;;;;;;;24.29;43.06;100202.59;5538772;32;34224;-86
2023/06/12 05:35:37;;;;;;;4.22;3.20;;;;;;;26.44;38.73;100211.53;5547652;32;33594;-87
2023/06/12 05:38:46;;;;;;;4.35;2.95;;;;;;;25.70;38.87;100210.25;5561025;32;34514;-87
2023/06/12 05:41:48;;;;;;;6.28;3.15;;;;;;;26.54;38.01;100216.69;5553101;32;32592;-87
2023/06/12 05:44:51;;;;;;;4.70;3.28;;;;;;;27.59;35.76;100210.37;5556802;32;33961;-87
2023/06/12 05:47:55;;;;;;;5.70;3.28;;;;;;;28.00;33.90;100208.06;5561540;32;33814;-85
2023/06/12 05:50:58;;;;;;;4.25;3.08;;;;;;;28.92;32.75;100211.69;5544183;32;34368;-85
2023/06/12 05:54:01;;;;;;;5.93;2.75;;;;;;;29.13;30.90;100209.06;5529570;32;33799;-87
2023/06/12 05:57:05;;;;;;;4.22;2.67;;;;;;;28.78;31.20;100221.69;5531765;32;34298;-87
2023/06/12 06:00:11;;;;;;;8.90;3.40;;;;;;;28.47;31.18;100220.19;5539708;32;34513;-89
2023/06/12 06:03:18;;;;;;;5.05;2.78;;;;;;;27.03;33.33;100220.78;5534872;32;33614;-87
2023/06/12 06:06:21;;;;;;;3.60;3.00;;;;;;;27.10;33.57;100223.59;5530845;32;34645;-88
2023/06/12 06:09:26;;;;;;;3.65;2.80;;;;;;;29.11;31.17;100219.34;5559149;31;34703;-87
2023/06/12 06:12:29;;;;;;;4.95;2.75;;;;;;;30.00;29.83;100224.88;5556446;32;34450;-88
2023/06/12 06:15:33;;;;;;;8.43;2.87;;;;;;;28.99;29.85;100230.00;5568553;32;33667;-89
2023/06/12 06:18:38;;;;;;;4.25;2.60;;;;;;;29.16;29.60;100222.31;5572167;32;33900;-88
2023/06/12 06:21:41;;;;;;;4.85;2.70;;;;;;;30.71;27.82;100221.75;5544545;32;33943;-88
2023/06/12 06:24:44;;;;;;;3.15;2.70;;;;;;;32.12;26.01;100225.69;5547104;32;34234;-88
2023/06/12 06:27:47;;;;;;;2.67;2.45;;;;;;;31.67;27.09;100218.41;5555590;32;33934;-89
2023/06/12 06:30:50;;;;;;;2.67;2.47;;;;;;;31.42;25.87;100220.00;5552905;32;34654;-88
2023/06/12 06:33:53;;;;;;;4.70;2.90;;;;;;;29.08;28.42;100228.78;5549370;32;34839;-87
2023/06/12 06:36:58;;;;;;;3.35;2.60;;;;;;;28.71;28.18;100223.50;5549033;32;34004;-91
2023/06/12 06:40:01;;;;;;;7.78;2.50;;;;;;;26.27;32.10;100219.00;5552005;32;34997;-91
2023/06/12 06:43:04;;;;;;;5.40;2.90;;;;;;;25.68;32.78;100215.00;5549484;32;35119;-91
2023/06/12 06:46:07;;;;;;;4.95;2.67;;;;;;;24.19;35.28;100213.63;5557066;32;33193;-88
2023/06/12 06:49:11;;;;;;;3.35;3.00;;;;;;;22.86;38.17;100222.19;5558937;32;32509;-86
2023/06/12 06:52:17;;;;;;;4.45;2.62;;;;;;;22.59;38.82;100221.34;5548976;32;33484;-87
2023/06/12 06:55:20;;;;;;;8.52;2.80;;;;;;;22.10;39.94;100219.09;5539140;32;33879;-88
2023/06/12 06:58:23;;;;;;;5.93;2.75;;;;;;;21.59;41.14;100216.06;5546798;32;34260;-86
2023/06/12 07:01:29;;;;;;;5.95;2.60;;;;;;;22.02;41.51;100225.28;5547948;32;34127;-85
2023/06/12 07:04:32;;;;;;;4.80;2.33;;;;;;;21.90;39.17;100221.97;5550370;32;34702;-83
2023/06/12 07:07:38;;;;;;;4.43;2.83;;;;;;;22.01;39.75;100225.44;5548909;32;34078;-87
2023/06/12 07:11:01;;;;;;;12.80;2.80;;;;;;;22.01;39.16;100215.47;5543600;32;33721;-87
2023/06/12 07:14:04;;;;;;;4.50;2.80;;;;;;;21.99;39.50;100228.31;5542878;32;34196;-87
2023/06/12 07:17:08;;;;;;;2.85;2.47;;;;;;;22.14;38.63;100222.34;5540227;32;33768;-85
2023/06/12 07:20:12;;;;;;;22.98;3.90;;;;;;;22.09;37.27;100225.50;5538834;32;34665;-86
2023/06/12 07:23:14;;;;;;;5.43;2.47;;;;;;;22.41;38.15;100223.22;5547360;32;33675;-85
2023/06/12 07:26:19;;;;;;;6.25;2.70;;;;;;;22.49;38.59;100223.28;5526604;32;32638;-85
2023/06/12 07:29:31;;;;;;;8.07;2.60;;;;;;;22.65;36.40;100227.13;5539503;32;33782;-85
2023/06/12 07:32:35;;;;;;;5.25;2.60;;;;;;;23.02;37.96;100220.56;5552001;32;34715;-87
2023/06/12 07:35:43;;;;;;;2.60;2.20;;;;;;;22.72;37.20;100228.19;5553330;32;33899;-85
2023/06/12 07:38:45;;;;;;;3.53;2.30;;;;;;;22.61;35.16;100227.47;5543235;32;33977;-85
2023/06/12 07:41:48;;;;;;;9.02;2.60;;;;;;;22.55;35.47;100217.28;5547596;32;32710;-87
2023/06/12 07:44:51;;;;;;;5.18;2.47;;;;;;;22.52;36.13;100211.34;5550050;32;34182;-86
2023/06/12 07:47:57;;;;;;;4.57;2.55;;;;;;;22.87;35.17;100214.91;5551999;32;34030;-85
2023/06/12 07:51:00;;;;;;;2.85;2.15;;;;;;;23.06;37.48;100223.78;5553117;32;34696;-86
2023/06/12 07:54:03;;;;;;;9.98;2.65;;;;;;;23.37;35.35;100226.84;5551687;32;33716;-85
2023/06/12 07:57:07;;;;;;;4.55;2.35;;;;;;;23.86;33.50;100217.13;5557543;32;33759;-85
2023/06/12 08:00:10;;;;;;;5.03;2.45;;;;;;;23.84;33.44;100216.44;5551632;32;34149;-86
2023/06/12 08:03:24;;;;;;;3.58;1.92;;;;;;;23.84;35.13;100216.44;5541298;32;33362;-85
2023/06/12 08:06:33;;;;;;;4.82;2.25;;;;;;;24.06;33.87;100225.78;5551647;32;33934;-86
2023/06/12 08:09:38;;;;;;;13.10;2.67;;;;;;;24.03;33.42;100215.25;5533248;32;33914;-89
2023/06/12 08:12:42;;;;;;;6.20;2.33;;;;;;;24.47;33.97;100230.34;5551782;32;34087;-92
2023/06/12 08:15:45;;;;;;;2.45;2.25;;;;;;;24.54;32.90;100219.66;5554759;32;34617;-90
2023/06/12 08:18:51;;;;;;;16.37;3.17;;;;;;;25.11;33.15;100219.69;5543614;32;33377;-87
2023/06/12 08:21:54;;;;;;;2.67;2.47;;;;;;;25.06;32.48;100214.81;5553323;32;34430;-86
2023/06/12 08:24:57;;;;;;;5.93;2.60;;;;;;;25.00;32.00;100208.19;5560724;32;33557;-84
2023/06/12 08:28:00;;;;;;;12.35;2.37;;;;;;;25.72;31.91;100218.22;5556068;32;34527;-86
2023/06/12 08:31:04;;;;;;;8.57;2.75;;;;;;;25.41;31.79;100214.47;5550814;32;34074;-86
2023/06/12 08:34:07;;;;;;;7.65;2.53;;;;;;;24.75;31.61;100207.44;5554771;32;33739;-87
2023/06/12 08:37:10;;;;;;;3.17;2.33;;;;;;;24.93;33.56;100211.81;5564260;32;33821;-88
2023/06/12 08:40:13;;;;;;;6.70;2.60;;;;;;;24.65;32.31;100215.75;5549018;32;34180;-88
2023/06/12 08:43:16;;;;;;;3.95;2.10;;;;;;;25.30;31.81;100216.56;5552576;32;34287;-85
2023/06/12 08:46:19;;;;;;;7.37;2.55;;;;;;;25.92;31.34;100216.72;5553816;32;33600;-87
2023/06/12 08:49:25;;;;;;;4.45;1.90;;;;;;;25.48;32.18;100218.16;5568173;32;34457;-87
2023/06/12 08:55:52;;;;;;;8.57;2.10;;;;;;;26.51;30.74;100217.91;5548160;32;34606;-87
2023/06/12 08:58:56;;;;;;;5.12;2.10;;;;;;;26.64;29.41;100213.72;5552328;32;33891;-88
2023/06/12 09:12:57;;;;;;;3.17;2.05;;;;;;;27.02;28.76;100223.69;5566804;31;32244;-87
2023/06/12 09:16:00;;;;;;;3.53;2.12;;;;;;;26.97;29.53;100210.66;5562822;32;33481;-87
2023/06/12 09:19:03;;;;;;;5.10;2.50;;;;;;;27.29;29.33;100219.44;5559073;32;33894;-88
2023/06/12 09:22:07;;;;;;;7.53;2.28;;;;;;;27.77;28.66;100209.94;5562177;32;35096;-88
2023/06/12 09:25:10;;;;;;;4.68;2.20;;;;;;;26.72;28.85;100210.91;5562664;32;34364;-89
2023/06/12 09:28:13;;;;;;;5.50;2.22;;;;;;;27.27;30.17;100209.78;5571340;32;34536;-89
2023/06/12 09:31:16;;;;;;;2.60;2.40;;;;;;;27.80;29.83;100211.44;5565873;32;34962;-87
2023/06/12 09:34:19;;;;;;;5.37;2.50;;;;;;;27.26;29.67;100205.38;5571258;32;33947;-86
2023/06/12 09:37:26;;;;;;;5.53;2.40;;;;;;;27.38;29.66;100214.72;5571784;32;33463;-87
2023/06/12 09:40:29;;;;;;;3.33;2.80;;;;;;;27.88;29.93;100210.44;5570643;32;35197;-89
2023/06/12 09:43:32;;;;;;;3.85;2.25;;;;;;;26.30;32.11;100209.66;5552417;32;33796;-88
2023/06/12 09:46:37;;;;;;;4.28;2.45;;;;;;;27.24;30.92;100202.81;5573738;26;34562;-88
2023/06/12 09:49:40;;;;;;;5.30;2.42;;;;;;;27.85;28.95;100201.62;5575067;31;34777;-88
2023/06/12 09:52:44;;;;;;;6.93;2.20;;;;;;;28.86;29.58;100207.03;5577753;32;33609;-88
2023/06/12 09:55:48;;;;;;;7.93;2.40;;;;;;;28.41;27.61;100212.81;5588781;31;34331;-88
2023/06/12 09:58:53;;;;;;;7.32;2.08;;;;;;;27.84;29.20;100204.53;5580798;31;34055;-88
2023/06/12 10:02:14;;;;;;;3.50;2.55;;;;;;;27.22;29.22;100204.06;5582826;31;34749;-87
2023/06/12 10:05:22;;;;;;;4.12;2.17;;;;;;;26.97;29.66;100209.81;5579266;31;33804;-87
2023/06/12 10:08:29;;;;;;;8.13;2.12;;;;;;;27.24;29.82;100205.56;5572182;31;33798;-88
2023/06/12 10:11:36;;;;;;;2.50;2.15;;;;;;;27.42;30.41;100202.44;5578747;31;33759;-87
2023/06/12 10:14:40;;;;;;;2.90;2.08;;;;;;;26.88;30.35;100207.16;5586947;31;34043;-88
2023/06/12 10:17:43;;;;;;;5.90;2.20;;;;;;;27.68;29.59;100192.87;5589261;31;34259;-87
2023/06/12 10:20:49;;;;;;;3.70;2.08;;;;;;;28.00;28.37;100202.59;5595969;31;34124;-86
2023/06/12 10:23:55;;;;;;;3.05;2.47;;;;;;;29.30;28.78;100199.47;5583217;31;34823;-86
2023/06/12 10:26:59;;;;;;;2.72;2.00;;;;;;;30.26;25.61;100209.53;5579857;31;33926;-86
2023/06/12 10:30:03;;;;;;;4.10;2.50;;;;;;;31.43;23.67;100201.69;5570103;31;34094;-87
2023/06/12 10:33:13;;;;;;;5.30;2.53;;;;;;;31.36;25.06;100200.88;5580180;31;34120;-89
2023/06/12 10:36:17;;;;;;;3.58;2.35;;;;;;;31.02;25.02;100196.34;5579672;31;33580;-86
2023/06/12 10:39:25;;;;;;;2.58;2.08;;;;;;;29.23;26.60;100195.88;5583387;31;33912;-86
2023/06/12 10:42:48;;;;;;;3.83;2.45;;;;;;;29.01;26.83;100190.53;5573260;31;34774;-85
2023/06/12 10:46:00;;;;;;;3.85;2.30;;;;;;;27.56;29.59;100181.59;5581520;31;34539;-85
2023/06/12 10:49:05;;;;;;;3.40;2.53;;;;;;;27.17;29.53;100182.84;5575515;31;34997;-86
2023/06/12 10:52:20;;;;;;;4.00;2.00;;;;;;;27.28;29.79;100179.63;5569741;31;33469;-84
2023/06/12 10:55:31;;;;;;;5.75;2.65;;;;;;;27.56;29.48;100178.88;5581245;31;34459;-87
2023/06/12 10:58:38;;;;;;;6.10;2.20;;;;;;;27.65;29.29;100165.19;5576015;31;33665;-85
2023/06/12 11:01:42;;;;;;;5.20;2.40;;;;;;;27.35;31.20;100163.34;5585774;31;33751;-85
2023/06/12 11:04:45;;;;;;;2.37;2.00;;;;;;;27.85;29.27;100168.94;5581835;31;34370;-85
2023/06/12 11:07:48;;;;;;;5.72;2.30;;;;;;;28.50;27.62;100169.84;5577633;31;33832;-85
2023/06/12 11:10:55;;;;;;;4.43;2.20;;;;;;;27.45;28.35;100177.50;5575618;31;34018;-84
2023/06/12 11:14:01;;;;;;;3.50;2.40;;;;;;;26.19;29.21;100164.69;5576296;31;33940;-84
2023/06/12 11:17:04;;;;;;;4.82;2.70;;;;;;;26.00;31.27;100155.19;5577997;31;34814;-84
2023/06/12 11:20:09;;;;;;;4.47;2.60;;;;;;;26.23;29.17;100157.88;5575270;31;34690;-84
2023/06/12 11:23:12;;;;;;;5.00;3.05;;;;;;;25.65;30.31;100152.91;5578220;31;33616;-84
2023/06/12 11:26:15;;;;;;;2.35;2.17;;;;;;;25.67;31.97;100146.28;5586615;31;34283;-84
2023/06/12 11:29:25;;;;;;;5.80;2.30;;;;;;;25.85;30.71;100136.97;5587885;31;33853;-85
2023/06/12 11:32:28;;;;;;;4.60;2.10;;;;;;;25.90;31.31;100141.84;5583737;31;34178;-83
2023/06/12 11:35:31;;;;;;;3.22;2.30;;;;;;;25.73;31.74;100143.88;5568175;32;33616;-84
2023/06/12 11:38:35;;;;;;;3.72;2.35;;;;;;;25.87;30.70;100144.91;5568644;31;33948;-84
2023/06/12 11:41:40;;;;;;;3.53;2.47;;;;;;;25.84;31.63;100137.97;5567829;32;33713;-84
2023/06/12 11:44:43;;;;;;;6.62;2.37;;;;;;;25.72;31.07;100144.88;5577439;31;34452;-85
2023/06/12 11:47:46;;;;;;;4.50;2.20;;;;;;;26.52;30.16;100142.63;5571725;31;34534;-85
2023/06/12 11:50:53;;;;;;;2.50;2.30;;;;;;;26.79;28.51;100134.81;5586541;31;35444;-89
2023/06/12 11:53:59;;;;;;;3.20;2.25;;;;;;;25.79;30.79;100137.72;5578562;31;34200;-89
2023/06/12 11:57:03;;;;;;;2.55;2.15;;;;;;;25.84;30.46;100140.69;5586875;31;33661;-86
2023/06/12 12:00:14;;;;;;;5.05;2.37;;;;;;;25.88;30.07;100139.31;5575512;31;34195;-86
2023/06/12 12:03:19;;;;;;;4.20;2.15;;;;;;;25.89;29.73;100137.47;5581558;31;33851;-86
2023/06/12 12:06:22;;;;;;;4.93;2.15;;;;;;;25.52;27.88;100143.47;5569828;31;34122;-86
2023/06/12 12:09:25;;;;;;;5.07;2.53;;;;;;;24.89;27.69;100138.06;5589204;31;33899;-86
2023/06/12 12:12:38;;;;;;;5.65;2.22;;;;;;;25.07;29.77;100135.09;5586340;31;33924;-86
2023/06/12 12:15:41;;;;;;;2.10;1.90;;;;;;;25.25;26.97;100144.84;5581755;31;33640;-86
2023/06/12 12:18:44;;;;;;;2.72;1.92;;;;;;;25.04;28.34;100135.44;5586033;31;33866;-85
2023/06/12 12:21:47;;;;;;;3.28;2.20;;;;;;;25.35;28.18;100136.47;5572220;31;34722;-86
2023/06/12 12:24:54;;;;;;;2.50;2.03;;;;;;;25.37;26.54;100137.12;5575628;31;33559;-86
2023/06/12 12:28:03;;;;;;;6.32;2.28;;;;;;;25.54;27.99;100129.75;5579882;31;34157;-86
2023/06/12 12:31:07;;;;;;;2.30;2.10;;;;;;;24.83;26.32;100128.75;5586200;31;33802;-87
2023/06/12 12:34:10;;;;;;;3.72;2.10;;;;;;;24.60;27.92;100131.38;5579593;31;33557;-86
2023/06/12 12:37:12;;;;;;;4.12;2.47;;;;;;;24.42;29.88;100120.72;5580293;31;34710;-85
2023/06/12 12:40:15;;;;;;;3.62;2.30;;;;;;;24.03;29.93;100117.75;5587394;31;34424;-84
2023/06/12 12:43:18;;;;;;;3.95;2.62;;;;;;;24.56;30.49;100117.31;5579183;31;34922;-84
2023/06/12 12:46:25;;;;;;;5.15;2.53;;;;;;;24.19;26.91;100133.16;5570269;31;34618;-84
2023/06/12 12:49:28;;;;;;;5.93;2.58;;;;;;;23.90;26.86;100122.84;5571622;31;33285;-84
2023/06/12 12:52:31;;;;;;;5.70;2.28;;;;;;;24.10;27.28;100126.06;5585397;31;34655;-84
2023/06/12 12:55:40;;;;;;;5.95;2.22;;;;;;;24.07;27.33;100112.84;5588397;31;34513;-84
2023/06/12 12:58:42;;;;;;;3.65;2.20;;;;;;;24.22;26.14;100115.69;5588060;31;33756;-87
2023/06/12 13:01:45;;;;;;;6.45;2.45;;;;;;;24.06;25.70;100121.97;5601831;31;35203;-87
2023/06/12 13:04:48;;;;;;;3.58;2.10;;;;;;;23.58;27.82;100119.94;5586145;31;33581;-87
2023/06/12 13:07:50;;;;;;;4.28;2.25;;;;;;;23.53;27.80;100116.91;5573430;31;34564;-89
2023/06/12 13:10:53;;;;;;;5.28;2.40;;;;;;;23.53;27.40;100111.50;5573104;31;34734;-88
2023/06/12 13:13:56;;;;;;;8.25;2.35;;;;;;;23.53;27.63;100108.81;5573595;31;32864;-87
2023/06/12 13:16:59;;;;;;;3.12;2.42;;;;;;;23.78;28.37;100117.75;5585236;31;33811;-88
2023/06/12 13:20:04;;;;;;;3.03;2.60;;;;;;;23.72;29.97;100112.19;5586750;31;35167;-87
2023/06/12 13:23:08;;;;;;;8.85;2.50;;;;;;;23.51;27.55;100105.41;5571181;32;34099;-88
2023/06/12 13:26:10;;;;;;;5.32;2.17;;;;;;;23.71;30.08;100097.78;5571589;32;34627;-88
2023/06/12 13:29:14;;;;;;;3.12;2.83;;;;;;;23.53;27.46;100106.91;5570773;31;34788;-88
2023/06/12 13:32:17;;;;;;;5.95;2.47;;;;;;;23.65;25.57;100112.88;5570617;32;34117;-87
2023/06/12 13:35:20;;;;;;;4.10;2.30;;;;;;;23.92;28.42;100099.13;5588033;31;33939;-87
2023/06/12 13:38:22;;;;;;;2.42;1.85;;;;;;;24.12;25.93;100096.94;5590504;31;33675;-88
2023/06/12 13:41:25;;;;;;;7.40;2.70;;;;;;;23.90;25.74;100093.03;5590652;31;35091;-91
2023/06/12 13:44:28;;;;;;;3.58;2.10;;;;;;;24.06;25.77;100093.03;5589670;31;34120;-91
2023/06/12 13:47:32;;;;;;;3.65;2.40;;;;;;;24.00;26.23;100093.72;5589337;31;34483;-90
2023/06/12 13:50:34;;;;;;;4.22;2.47;;;;;;;23.80;25.08;100104.87;5598016;31;33664;-89
2023/06/12 13:53:39;;;;;;;2.87;2.12;;;;;;;23.78;23.70;100089.84;5591187;31;33986;-89
2023/06/12 13:56:42;;;;;;;2.92;2.33;;;;;;;23.79;26.43;100084.25;5590241;31;34185;-88
2023/06/12 13:59:45;;;;;;;2.05;1.92;;;;;;;23.52;29.34;100088.13;5591158;31;34148;-88
2023/06/12 14:02:47;;;;;;;4.95;2.28;;;;;;;23.57;30.16;100084.94;5590571;31;33927;-88
2023/06/12 14:05:51;;;;;;;5.22;2.00;;;;;;;23.64;30.72;100084.06;5590325;31;33855;-88
2023/06/12 14:08:55;;;;;;;2.50;1.90;;;;;;;23.60;29.36;100081.88;5591602;31;34590;-89
2023/06/12 14:12:05;;;;;;;2.87;2.10;;;;;;;23.59;30.30;100075.63;5642141;26;33461;-89
2023/06/12 14:15:09;;;;;;;;;;;;;;;23.23;30.33;100087.56;5605945;26;34024;-89
2023/06/12 14:18:12;;;;;;;3.67;2.30;;;;;;;23.31;30.08;100084.06;5571714;32;33737;-89
2023/06/12 14:21:15;;;;;;;4.28;2.40;;;;;;;23.35;30.22;100080.03;5572960;32;33773;-89
2023/06/12 14:24:29;;;;;;;3.97;1.85;;;;;;;23.34;31.49;100083.75;5591335;26;34085;-89
2023/06/12 14:27:40;;;;;;;3.20;2.22;;;;;;;23.22;31.81;100074.19;5572675;31;33192;-88
2023/06/12 14:30:42;;;;;;;2.60;2.28;;;;;;;23.42;31.05;100077.47;5574200;32;33336;-88
2023/06/12 14:33:45;;;;;;;3.22;2.53;;;;;;;23.58;31.19;100081.22;5575960;32;33827;-88
2023/06/12 14:36:48;;;;;;;3.00;2.58;;;;;;;23.87;31.66;100080.69;5602532;26;33725;-88
2023/06/12 14:39:51;;;;;;;3.75;2.30;;;;;;;23.30;31.02;100079.66;5598166;31;34045;-88
2023/06/12 14:42:54;;;;;;;3.45;2.15;;;;;;;23.40;30.90;100080.38;5598102;31;33650;-88
2023/06/12 14:45:57;;;;;;;2.87;2.30;;;;;;;23.35;30.36;100081.88;5598457;31;33945;-88
2023/06/12 14:49:00;;;;;;;4.95;2.28;;;;;;;23.54;30.73;100078.00;5598144;31;33989;-88
2023/06/12 14:52:03;;;;;;;4.32;2.33;;;;;;;23.50;30.23;100082.91;5596798;31;34261;-88
2023/06/12 14:55:07;;;;;;;2.95;2.37;;;;;;;23.24;29.14;100083.00;5598793;31;34257;-88
2023/06/12 14:58:11;;;;;;;2.65;2.25;;;;;;;23.42;27.98;100077.47;5595151;31;34055;-87
2023/06/12 15:01:14;;;;;;;4.93;2.60;;;;;;;23.11;28.33;100081.63;5595480;31;34107;-88
2023/06/12 15:04:17;;;;;;;3.70;2.30;;;;;;;23.11;30.46;100086.19;5597160;31;34844;-88
2023/06/12 15:07:20;;;;;;;3.83;2.12;;;;;;;23.14;29.14;100077.75;5599466;31;33850;-87
2023/06/12 15:10:23;;;;;;;4.03;2.42;;;;;;;23.18;29.27;100075.56;5601922;31;33613;-87
2023/06/12 15:13:26;;;;;;;5.28;2.30;;;;;;;22.99;30.34;100075.69;5598104;31;33830;-88
2023/06/12 15:16:29;;;;;;;3.95;2.40;;;;;;;22.84;31.28;100075.47;5597591;31;33532;-88
2023/06/12 15:19:32;;;;;;;3.22;2.05;;;;;;;22.79;31.76;100074.28;5611380;31;34675;-88
2023/06/12 15:22:35;;;;;;;5.57;2.60;;;;;;;22.65;31.80;100073.03;5618038;31;33942;-88
2023/06/12 15:25:38;;;;;;;3.75;2.37;;;;;;;22.68;31.44;100072.72;5618348;31;34422;-88
2023/06/12 15:28:41;;;;;;;4.07;2.30;;;;;;;22.69;32.51;100072.56;5618623;31;36827;-88
2023/06/12 15:31:46;;;;;;;4.22;2.35;;;;;;;22.84;32.71;100072.75;5616496;31;33768;-87
